sensor_id;sensor_type;location;lat;lon;timestamp;pressure;altitude;pressure_sealevel;temperature;humidity
76448;BME280;65284;51.040;13.722;2023-03-04T00:00:32;100444.00;;;0.39;82.87
76448;BME280;65284;51.040;13.722;2023-03-04T00:02:58;100439.63;;;0.39;83.06
76448;BME280;65284;51.040;13.722;2023-03-04T00:05:25;100438.50;;;0.43;82.68
76448;BME280;65284;51.040;13.722;2023-03-04T00:07:51;100438.59;;;0.42;82.76
76448;BME280;65284;51.040;13.722;2023-03-04T00:10:18;100431.44;;;0.45;82.75
76448;BME280;65284;51.040;13.722;2023-03-04T00:12:44;100432.53;;;0.41;82.64
76448;BME280;65284;51.040;13.722;2023-03-04T00:15:11;100437.00;;;0.39;82.89
76448;BME280;65284;51.040;13.722;2023-03-04T00:17:37;100434.38;;;0.39;83.22
76448;BME280;65284;51.040;13.722;2023-03-04T00:20:04;100432.19;;;0.48;82.44
76448;BME280;65284;51.040;13.722;2023-03-04T00:22:30;100419.31;;;0.44;82.63
76448;BME280;65284;51.040;13.722;2023-03-04T00:24:56;100425.19;;;0.48;82.30
76448;BME280;65284;51.040;13.722;2023-03-04T00:27:23;100424.91;;;0.53;82.52
76448;BME280;65284;51.040;13.722;2023-03-04T00:29:49;100423.41;;;0.49;82.67
76448;BME280;65284;51.040;13.722;2023-03-04T00:32:16;100407.91;;;0.45;82.81
76448;BME280;65284;51.040;13.722;2023-03-04T00:34:43;100408.56;;;0.49;82.68
76448;BME280;65284;51.040;13.722;2023-03-04T00:37:09;100404.94;;;0.52;82.52
76448;BME280;65284;51.040;13.722;2023-03-04T00:39:36;100411.28;;;0.48;82.66
76448;BME280;65284;51.040;13.722;2023-03-04T00:42:02;100407.75;;;0.49;82.70
76448;BME280;65284;51.040;13.722;2023-03-04T00:44:29;100413.44;;;0.55;82.48
76448;BME280;65284;51.040;13.722;2023-03-04T00:46:55;100404.78;;;0.55;82.50
76448;BME280;65284;51.040;13.722;2023-03-04T00:49:22;100403.28;;;0.51;82.96
76448;BME280;65284;51.040;13.722;2023-03-04T00:51:48;100398.97;;;0.50;83.09
76448;BME280;65284;51.040;13.722;2023-03-04T00:54:14;100398.78;;;0.53;82.98
76448;BME280;65284;51.040;13.722;2023-03-04T00:56:41;100403.84;;;0.56;82.86
76448;BME280;65284;51.040;13.722;2023-03-04T00:59:07;100396.94;;;0.55;82.77
76448;BME280;65284;51.040;13.722;2023-03-04T01:01:33;100387.06;;;0.60;82.69
76448;BME280;65284;51.040;13.722;2023-03-04T01:04:00;100396.09;;;0.54;82.61
76448;BME280;65284;51.040;13.722;2023-03-04T01:06:26;100390.59;;;0.59;82.62
76448;BME280;65284;51.040;13.722;2023-03-04T01:08:53;100391.34;;;0.61;82.80
76448;BME280;65284;51.040;13.722;2023-03-04T01:11:19;100387.13;;;0.58;82.26
76448;BME280;65284;51.040;13.722;2023-03-04T01:13:46;100394.91;;;0.60;82.26
76448;BME280;65284;51.040;13.722;2023-03-04T01:16:12;100374.91;;;0.59;82.38
76448;BME280;65284;51.040;13.722;2023-03-04T01:18:39;100378.47;;;0.58;82.40
76448;BME280;65284;51.040;13.722;2023-03-04T01:21:05;100376.63;;;0.60;82.50
76448;BME280;65284;51.040;13.722;2023-03-04T01:23:32;100357.56;;;0.58;82.17
76448;BME280;65284;51.040;13.722;2023-03-04T01:25:58;100361.78;;;0.60;82.53
76448;BME280;65284;51.040;13.722;2023-03-04T01:28:25;100366.06;;;0.61;82.32
76448;BME280;65284;51.040;13.722;2023-03-04T01:30:51;100352.16;;;0.61;82.00
76448;BME280;65284;51.040;13.722;2023-03-04T01:33:17;100344.50;;;0.58;82.29
76448;BME280;65284;51.040;13.722;2023-03-04T01:35:44;100350.66;;;0.57;82.39
76448;BME280;65284;51.040;13.722;2023-03-04T01:38:10;100340.75;;;0.62;81.69
76448;BME280;65284;51.040;13.722;2023-03-04T01:40:37;100341.63;;;0.62;82.01
76448;BME280;65284;51.040;13.722;2023-03-04T01:43:04;100334.03;;;0.58;82.07
76448;BME280;65284;51.040;13.722;2023-03-04T01:45:34;100341.88;;;0.58;81.87
76448;BME280;65284;51.040;13.722;2023-03-04T01:48:00;100338.25;;;0.60;82.18
76448;BME280;65284;51.040;13.722;2023-03-04T01:50:31;100328.09;;;0.70;81.58
76448;BME280;65284;51.040;13.722;2023-03-04T01:52:58;100345.25;;;0.60;81.90
76448;BME280;65284;51.040;13.722;2023-03-04T01:55:24;100326.03;;;0.61;81.54
76448;BME280;65284;51.040;13.722;2023-03-04T01:57:51;100334.69;;;0.61;81.86
76448;BME280;65284;51.040;13.722;2023-03-04T02:00:21;100335.53;;;0.62;81.76
76448;BME280;65284;51.040;13.722;2023-03-04T02:03:00;100333.31;;;0.70;81.23
76448;BME280;65284;51.040;13.722;2023-03-04T02:05:28;100313.78;;;0.61;81.58
76448;BME280;65284;51.040;13.722;2023-03-04T02:07:56;100314.44;;;0.65;81.30
76448;BME280;65284;51.040;13.722;2023-03-04T02:10:23;100317.16;;;0.63;81.40
76448;BME280;65284;51.040;13.722;2023-03-04T02:12:51;100314.91;;;0.57;81.39
76448;BME280;65284;51.040;13.722;2023-03-04T02:15:17;100316.50;;;0.60;81.72
76448;BME280;65284;51.040;13.722;2023-03-04T02:17:44;100306.06;;;0.60;81.83
76448;BME280;65284;51.040;13.722;2023-03-04T02:23:15;100310.91;;;0.66;81.31
76448;BME280;65284;51.040;13.722;2023-03-04T02:28:33;100307.72;;;0.61;81.53
76448;BME280;65284;51.040;13.722;2023-03-04T02:30:59;100313.59;;;0.64;81.65
76448;BME280;65284;51.040;13.722;2023-03-04T02:33:26;100297.84;;;0.66;81.53
76448;BME280;65284;51.040;13.722;2023-03-04T02:35:52;100298.56;;;0.68;81.43
76448;BME280;65284;51.040;13.722;2023-03-04T02:38:18;100293.06;;;0.58;81.85
76448;BME280;65284;51.040;13.722;2023-03-04T02:40:47;100294.59;;;0.62;81.65
76448;BME280;65284;51.040;13.722;2023-03-04T02:43:15;100285.31;;;0.57;81.79
76448;BME280;65284;51.040;13.722;2023-03-04T02:45:48;100295.59;;;0.60;81.55
76448;BME280;65284;51.040;13.722;2023-03-04T02:48:18;100281.69;;;0.59;81.52
76448;BME280;65284;51.040;13.722;2023-03-04T02:50:48;100277.38;;;0.58;81.67
76448;BME280;65284;51.040;13.722;2023-03-04T02:53:16;100284.13;;;0.62;81.56
76448;BME280;65284;51.040;13.722;2023-03-04T02:55:43;100271.72;;;0.66;81.48
76448;BME280;65284;51.040;13.722;2023-03-04T02:58:10;100272.09;;;0.60;81.64
76448;BME280;65284;51.040;13.722;2023-03-04T03:00:37;100270.00;;;0.65;81.67
76448;BME280;65284;51.040;13.722;2023-03-04T03:03:04;100265.53;;;0.67;81.42
76448;BME280;65284;51.040;13.722;2023-03-04T03:05:32;100265.53;;;0.67;81.48
76448;BME280;65284;51.040;13.722;2023-03-04T03:07:59;100264.06;;;0.63;81.62
76448;BME280;65284;51.040;13.722;2023-03-04T03:10:26;100266.56;;;0.64;81.71
76448;BME280;65284;51.040;13.722;2023-03-04T03:12:53;100267.22;;;0.68;81.75
76448;BME280;65284;51.040;13.722;2023-03-04T03:15:19;100260.50;;;0.64;81.72
76448;BME280;65284;51.040;13.722;2023-03-04T03:17:46;100269.28;;;0.63;81.84
76448;BME280;65284;51.040;13.722;2023-03-04T03:20:13;100256.75;;;0.68;81.68
76448;BME280;65284;51.040;13.722;2023-03-04T03:22:40;100269.81;;;0.68;81.95
76448;BME280;65284;51.040;13.722;2023-03-04T03:25:08;100268.91;;;0.69;82.04
76448;BME280;65284;51.040;13.722;2023-03-04T03:27:35;100256.94;;;0.65;81.69
76448;BME280;65284;51.040;13.722;2023-03-04T03:30:02;100242.97;;;0.66;81.69
76448;BME280;65284;51.040;13.722;2023-03-04T03:32:29;100256.94;;;0.65;81.55
76448;BME280;65284;51.040;13.722;2023-03-04T03:34:55;100247.44;;;0.64;81.57
76448;BME280;65284;51.040;13.722;2023-03-04T03:37:22;100249.09;;;0.65;81.86
76448;BME280;65284;51.040;13.722;2023-03-04T03:39:48;100234.38;;;0.64;81.85
76448;BME280;65284;51.040;13.722;2023-03-04T03:42:14;100232.13;;;0.72;81.54
76448;BME280;65284;51.040;13.722;2023-03-04T03:44:41;100223.72;;;0.67;81.50
76448;BME280;65284;51.040;13.722;2023-03-04T03:47:07;100237.91;;;0.63;81.95
76448;BME280;65284;51.040;13.722;2023-03-04T03:49:34;100235.69;;;0.71;81.31
76448;BME280;65284;51.040;13.722;2023-03-04T03:52:00;100224.75;;;0.64;81.53
76448;BME280;65284;51.040;13.722;2023-03-04T03:54:26;100234.53;;;0.61;81.96
76448;BME280;65284;51.040;13.722;2023-03-04T03:56:53;100237.91;;;0.63;81.81
76448;BME280;65284;51.040;13.722;2023-03-04T03:59:19;100232.88;;;0.60;81.70
76448;BME280;65284;51.040;13.722;2023-03-04T04:01:46;100247.78;;;0.58;81.86
76448;BME280;65284;51.040;13.722;2023-03-04T04:04:12;100240.72;;;0.60;82.09
76448;BME280;65284;51.040;13.722;2023-03-04T04:06:39;100250.41;;;0.58;81.73
76448;BME280;65284;51.040;13.722;2023-03-04T04:09:05;100231.53;;;0.53;82.23
76448;BME280;65284;51.040;13.722;2023-03-04T04:11:32;100253.97;;;0.57;81.99
76448;BME280;65284;51.040;13.722;2023-03-04T04:13:58;100245.38;;;0.55;81.87
76448;BME280;65284;51.040;13.722;2023-03-04T04:16:24;100243.50;;;0.57;81.84
76448;BME280;65284;51.040;13.722;2023-03-04T04:18:51;100237.34;;;0.58;82.06
76448;BME280;65284;51.040;13.722;2023-03-04T04:21:17;100246.03;;;0.58;81.67
76448;BME280;65284;51.040;13.722;2023-03-04T04:23:43;100255.28;;;0.64;81.45
76448;BME280;65284;51.040;13.722;2023-03-04T04:26:10;100247.91;;;0.56;81.97
76448;BME280;65284;51.040;13.722;2023-03-04T04:28:36;100257.13;;;0.62;81.73
76448;BME280;65284;51.040;13.722;2023-03-04T04:31:06;100246.84;;;0.59;82.19
76448;BME280;65284;51.040;13.722;2023-03-04T04:33:33;100252.09;;;0.59;81.72
76448;BME280;65284;51.040;13.722;2023-03-04T04:36:00;100237.72;;;0.66;81.74
76448;BME280;65284;51.040;13.722;2023-03-04T04:38:26;100243.88;;;0.65;81.45
76448;BME280;65284;51.040;13.722;2023-03-04T04:40:55;100252.28;;;0.70;81.27
76448;BME280;65284;51.040;13.722;2023-03-04T04:43:22;100246.50;;;0.65;81.38
76448;BME280;65284;51.040;13.722;2023-03-04T04:45:48;100241.06;;;0.68;81.34
76448;BME280;65284;51.040;13.722;2023-03-04T04:48:15;100248.19;;;0.66;81.46
76448;BME280;65284;51.040;13.722;2023-03-04T04:50:41;100241.25;;;0.65;81.66
76448;BME280;65284;51.040;13.722;2023-03-04T04:53:10;100241.00;;;0.70;81.42
76448;BME280;65284;51.040;13.722;2023-03-04T04:55:37;100235.84;;;0.68;81.40
76448;BME280;65284;51.040;13.722;2023-03-04T04:58:05;100246.16;;;0.71;81.22
76448;BME280;65284;51.040;13.722;2023-03-04T05:00:32;100241.84;;;0.70;81.21
76448;BME280;65284;51.040;13.722;2023-03-04T05:02:58;100239.03;;;0.73;81.29
76448;BME280;65284;51.040;13.722;2023-03-04T05:05:25;100228.75;;;0.70;81.16
76448;BME280;65284;51.040;13.722;2023-03-04T05:07:51;100232.13;;;0.72;81.11
76448;BME280;65284;51.040;13.722;2023-03-04T05:10:17;100219.44;;;0.80;80.79
76448;BME280;65284;51.040;13.722;2023-03-04T05:12:44;100251.00;;;0.77;81.12
76448;BME280;65284;51.040;13.722;2023-03-04T05:15:10;100240.63;;;0.76;80.88
76448;BME280;65284;51.040;13.722;2023-03-04T05:17:37;100247.06;;;0.84;80.71
76448;BME280;65284;51.040;13.722;2023-03-04T05:20:03;100233.63;;;0.90;80.35
76448;BME280;65284;51.040;13.722;2023-03-04T05:22:32;100231.38;;;0.84;80.47
76448;BME280;65284;51.040;13.722;2023-03-04T05:24:58;100243.69;;;0.82;80.88
76448;BME280;65284;51.040;13.722;2023-03-04T05:27:25;100234.56;;;0.89;80.39
76448;BME280;65284;51.040;13.722;2023-03-04T05:29:51;100232.16;;;0.86;80.20
76448;BME280;65284;51.040;13.722;2023-03-04T05:32:19;100225.78;;;0.90;80.09
76448;BME280;65284;51.040;13.722;2023-03-04T05:34:45;100221.50;;;0.89;80.38
76448;BME280;65284;51.040;13.722;2023-03-04T05:37:11;100217.00;;;0.91;80.23
76448;BME280;65284;51.040;13.722;2023-03-04T05:39:38;100206.34;;;0.95;80.20
76448;BME280;65284;51.040;13.722;2023-03-04T05:42:04;100201.03;;;0.96;80.33
76448;BME280;65284;51.040;13.722;2023-03-04T05:44:31;100213.09;;;0.99;80.08
76448;BME280;65284;51.040;13.722;2023-03-04T05:46:57;100195.72;;;0.98;80.18
76448;BME280;65284;51.040;13.722;2023-03-04T05:49:23;100200.56;;;1.04;80.17
76448;BME280;65284;51.040;13.722;2023-03-04T05:51:51;100203.66;;;0.96;80.40
76448;BME280;65284;51.040;13.722;2023-03-04T05:54:17;100192.91;;;1.01;79.91
76448;BME280;65284;51.040;13.722;2023-03-04T05:56:44;100198.34;;;0.98;80.25
76448;BME280;65284;51.040;13.722;2023-03-04T05:59:10;100191.97;;;1.02;80.36
76448;BME280;65284;51.040;13.722;2023-03-04T06:01:37;100199.06;;;1.00;80.13
76448;BME280;65284;51.040;13.722;2023-03-04T06:04:03;100211.03;;;1.04;80.06
76448;BME280;65284;51.040;13.722;2023-03-04T06:06:30;100201.22;;;1.07;79.85
76448;BME280;65284;51.040;13.722;2023-03-04T06:08:56;100188.22;;;1.06;79.92
76448;BME280;65284;51.040;13.722;2023-03-04T06:11:22;100195.88;;;1.09;80.01
76448;BME280;65284;51.040;13.722;2023-03-04T06:13:49;100206.53;;;1.06;80.23
76448;BME280;65284;51.040;13.722;2023-03-04T06:16:15;100184.50;;;1.10;80.13
76448;BME280;65284;51.040;13.722;2023-03-04T06:18:42;100189.53;;;1.13;79.97
76448;BME280;65284;51.040;13.722;2023-03-04T06:21:08;100191.19;;;1.14;80.02
76448;BME280;65284;51.040;13.722;2023-03-04T06:23:35;100199.59;;;1.19;80.18
76448;BME280;65284;51.040;13.722;2023-03-04T06:26:01;100196.53;;;1.12;80.37
76448;BME280;65284;51.040;13.722;2023-03-04T06:28:28;100192.88;;;1.15;80.01
76448;BME280;65284;51.040;13.722;2023-03-04T06:30:55;100184.31;;;1.13;80.37
76448;BME280;65284;51.040;13.722;2023-03-04T06:33:22;100195.59;;;1.13;80.63
76448;BME280;65284;51.040;13.722;2023-03-04T06:35:53;100200.06;;;1.11;80.30
76448;BME280;65284;51.040;13.722;2023-03-04T06:38:20;100190.56;;;1.10;80.92
76448;BME280;65284;51.040;13.722;2023-03-04T06:40:47;100196.25;;;1.17;80.68
76448;BME280;65284;51.040;13.722;2023-03-04T06:43:13;100198.78;;;1.19;80.54
76448;BME280;65284;51.040;13.722;2023-03-04T06:45:39;100194.56;;;1.16;80.74
76448;BME280;65284;51.040;13.722;2023-03-04T06:48:06;100192.69;;;1.18;80.88
76448;BME280;65284;51.040;13.722;2023-03-04T06:50:32;100176.78;;;1.21;80.99
76448;BME280;65284;51.040;13.722;2023-03-04T06:52:59;100194.94;;;1.24;80.77
76448;BME280;65284;51.040;13.722;2023-03-04T06:55:25;100185.38;;;1.23;80.93
76448;BME280;65284;51.040;13.722;2023-03-04T06:57:52;100185.59;;;1.20;81.02
76448;BME280;65284;51.040;13.722;2023-03-04T07:00:18;100186.97;;;1.26;81.18
76448;BME280;65284;51.040;13.722;2023-03-04T07:02:45;100182.38;;;1.29;81.48
76448;BME280;65284;51.040;13.722;2023-03-04T07:05:11;100187.09;;;1.24;81.57
76448;BME280;65284;51.040;13.722;2023-03-04T07:07:37;100174.94;;;1.23;81.56
76448;BME280;65284;51.040;13.722;2023-03-04T07:10:04;100185.19;;;1.26;81.42
76448;BME280;65284;51.040;13.722;2023-03-04T07:12:31;100185.00;;;1.29;81.68
76448;BME280;65284;51.040;13.722;2023-03-04T07:14:57;100180.16;;;1.23;81.76
76448;BME280;65284;51.040;13.722;2023-03-04T07:17:23;100174.72;;;1.26;81.69
76448;BME280;65284;51.040;13.722;2023-03-04T07:19:50;100190.22;;;1.29;81.95
76448;BME280;65284;51.040;13.722;2023-03-04T07:22:16;100201.72;;;1.27;82.02
76448;BME280;65284;51.040;13.722;2023-03-04T07:24:43;100176.94;;;1.32;82.08
76448;BME280;65284;51.040;13.722;2023-03-04T07:27:09;100179.97;;;1.26;82.32
76448;BME280;65284;51.040;13.722;2023-03-04T07:29:35;100174.53;;;1.29;82.34
76448;BME280;65284;51.040;13.722;2023-03-04T07:32:06;100177.16;;;1.29;82.79
76448;BME280;65284;51.040;13.722;2023-03-04T07:34:33;100182.09;;;1.34;82.27
76448;BME280;65284;51.040;13.722;2023-03-04T07:36:59;100193.41;;;1.34;82.53
76448;BME280;65284;51.040;13.722;2023-03-04T07:39:25;100188.38;;;1.31;82.75
76448;BME280;65284;51.040;13.722;2023-03-04T07:41:52;100175.84;;;1.36;82.87
76448;BME280;65284;51.040;13.722;2023-03-04T07:44:18;100174.88;;;1.38;82.65
76448;BME280;65284;51.040;13.722;2023-03-04T07:46:44;100186.19;;;1.38;82.63
76448;BME280;65284;51.040;13.722;2023-03-04T07:49:12;100183.50;;;1.40;82.84
76448;BME280;65284;51.040;13.722;2023-03-04T07:51:39;100177.09;;;1.44;82.89
76448;BME280;65284;51.040;13.722;2023-03-04T07:54:05;100175.03;;;1.49;83.04
76448;BME280;65284;51.040;13.722;2023-03-04T07:56:33;100175.88;;;1.49;82.94
76448;BME280;65284;51.040;13.722;2023-03-04T07:58:59;100185.19;;;1.53;82.85
76448;BME280;65284;51.040;13.722;2023-03-04T08:01:34;100197.66;;;1.50;82.73
76448;BME280;65284;51.040;13.722;2023-03-04T08:04:03;100180.50;;;1.58;82.74
76448;BME280;65284;51.040;13.722;2023-03-04T08:06:30;100167.53;;;1.57;82.82
76448;BME280;65284;51.040;13.722;2023-03-04T08:08:59;100181.16;;;1.62;82.88
76448;BME280;65284;51.040;13.722;2023-03-04T08:11:26;100168.25;;;1.59;82.96
76448;BME280;65284;51.040;13.722;2023-03-04T08:13:53;100162.34;;;1.70;82.44
76448;BME280;65284;51.040;13.722;2023-03-04T08:16:21;100164.63;;;1.74;82.83
76448;BME280;65284;51.040;13.722;2023-03-04T08:18:50;100145.19;;;1.78;82.52
76448;BME280;65284;51.040;13.722;2023-03-04T08:21:18;100143.50;;;1.77;82.44
76448;BME280;65284;51.040;13.722;2023-03-04T08:23:45;100149.28;;;1.82;82.37
76448;BME280;65284;51.040;13.722;2023-03-04T08:26:15;100160.38;;;1.86;82.38
76448;BME280;65284;51.040;13.722;2023-03-04T08:28:42;100153.06;;;1.91;82.25
76448;BME280;65284;51.040;13.722;2023-03-04T08:31:12;100154.00;;;1.90;82.74
76448;BME280;65284;51.040;13.722;2023-03-04T08:33:39;100162.91;;;1.88;83.31
76448;BME280;65284;51.040;13.722;2023-03-04T08:36:07;100152.72;;;1.83;83.53
76448;BME280;65284;51.040;13.722;2023-03-04T08:38:33;100169.94;;;1.87;83.70
76448;BME280;65284;51.040;13.722;2023-03-04T08:41:00;100163.53;;;1.91;83.26
76448;BME280;65284;51.040;13.722;2023-03-04T08:43:26;100149.59;;;1.91;83.66
76448;BME280;65284;51.040;13.722;2023-03-04T08:45:53;100154.63;;;1.94;83.37
76448;BME280;65284;51.040;13.722;2023-03-04T08:48:21;100156.09;;;1.98;83.37
76448;BME280;65284;51.040;13.722;2023-03-04T08:50:48;100150.88;;;1.98;83.62
76448;BME280;65284;51.040;13.722;2023-03-04T08:53:16;100155.69;;;2.04;83.57
76448;BME280;65284;51.040;13.722;2023-03-04T08:55:43;100143.13;;;2.09;83.19
76448;BME280;65284;51.040;13.722;2023-03-04T08:58:10;100160.34;;;2.13;83.20
76448;BME280;65284;51.040;13.722;2023-03-04T09:00:41;100159.25;;;2.16;82.91
76448;BME280;65284;51.040;13.722;2023-03-04T09:03:12;100160.13;;;2.16;83.30
76448;BME280;65284;51.040;13.722;2023-03-04T09:05:39;100156.56;;;2.17;82.96
76448;BME280;65284;51.040;13.722;2023-03-04T09:08:06;100151.53;;;2.27;83.02
76448;BME280;65284;51.040;13.722;2023-03-04T09:10:33;100150.28;;;2.33;82.95
76448;BME280;65284;51.040;13.722;2023-03-04T09:12:59;100170.69;;;2.27;82.92
76448;BME280;65284;51.040;13.722;2023-03-04T09:15:27;100171.03;;;2.23;83.17
76448;BME280;65284;51.040;13.722;2023-03-04T09:17:53;100168.06;;;2.27;83.46
76448;BME280;65284;51.040;13.722;2023-03-04T09:20:20;100164.31;;;2.32;83.36
76448;BME280;65284;51.040;13.722;2023-03-04T09:22:48;100176.25;;;2.36;82.96
76448;BME280;65284;51.040;13.722;2023-03-04T09:25:14;100154.06;;;2.28;83.32
76448;BME280;65284;51.040;13.722;2023-03-04T09:27:41;100180.25;;;2.28;83.53
76448;BME280;65284;51.040;13.722;2023-03-04T09:30:07;100174.38;;;2.38;83.31
76448;BME280;65284;51.040;13.722;2023-03-04T09:32:34;100165.38;;;2.42;83.29
76448;BME280;65284;51.040;13.722;2023-03-04T09:35:01;100155.63;;;2.44;83.37
76448;BME280;65284;51.040;13.722;2023-03-04T09:37:27;100156.16;;;2.49;83.02
76448;BME280;65284;51.040;13.722;2023-03-04T09:39:53;100151.31;;;2.56;83.21
76448;BME280;65284;51.040;13.722;2023-03-04T09:42:24;100153.81;;;2.57;82.92
76448;BME280;65284;51.040;13.722;2023-03-04T09:44:53;100160.34;;;2.64;82.46
76448;BME280;65284;51.040;13.722;2023-03-04T09:47:20;100141.63;;;2.69;82.61
76448;BME280;65284;51.040;13.722;2023-03-04T09:49:55;100140.09;;;2.66;82.46
76448;BME280;65284;51.040;13.722;2023-03-04T09:52:59;100156.22;;;2.60;82.87
76448;BME280;65284;51.040;13.722;2023-03-04T09:55:34;100142.94;;;2.63;82.76
76448;BME280;65284;51.040;13.722;2023-03-04T09:58:09;100157.81;;;2.63;83.09
76448;BME280;65284;51.040;13.722;2023-03-04T10:00:41;100141.84;;;2.66;82.98
76448;BME280;65284;51.040;13.722;2023-03-04T10:03:15;100145.13;;;2.69;82.71
76448;BME280;65284;51.040;13.722;2023-03-04T10:06:05;100126.88;;;2.68;82.77
76448;BME280;65284;51.040;13.722;2023-03-04T10:11:39;100122.97;;;2.73;83.19
76448;BME280;65284;51.040;13.722;2023-03-04T10:14:20;100116.06;;;2.72;83.25
76448;BME280;65284;51.040;13.722;2023-03-04T10:16:56;100119.41;;;2.74;83.11
76448;BME280;65284;51.040;13.722;2023-03-04T10:21:56;100113.28;;;2.87;83.21
76448;BME280;65284;51.040;13.722;2023-03-04T10:24:26;100108.09;;;2.98;82.76
76448;BME280;65284;51.040;13.722;2023-03-04T10:26:59;100109.38;;;3.05;82.23
76448;BME280;65284;51.040;13.722;2023-03-04T10:29:29;100113.66;;;3.06;83.09
76448;BME280;65284;51.040;13.722;2023-03-04T10:31:57;100095.28;;;3.06;82.13
76448;BME280;65284;51.040;13.722;2023-03-04T10:34:23;100113.13;;;3.01;86.67
76448;BME280;65284;51.040;13.722;2023-03-04T10:37:05;100099.53;;;2.96;82.32
76448;BME280;65284;51.040;13.722;2023-03-04T10:39:38;100109.91;;;2.97;82.56
76448;BME280;65284;51.040;13.722;2023-03-04T10:42:22;100102.19;;;3.07;82.74
76448;BME280;65284;51.040;13.722;2023-03-04T10:44:55;100095.78;;;3.11;82.83
76448;BME280;65284;51.040;13.722;2023-03-04T10:47:23;100106.09;;;3.02;83.46
76448;BME280;65284;51.040;13.722;2023-03-04T10:49:59;100094.44;;;3.06;83.09
76448;BME280;65284;51.040;13.722;2023-03-04T10:52:38;100093.72;;;3.04;83.28
76448;BME280;65284;51.040;13.722;2023-03-04T10:55:14;100106.28;;;3.11;82.69
76448;BME280;65284;51.040;13.722;2023-03-04T10:57:42;100100.59;;;3.17;82.61
76448;BME280;65284;51.040;13.722;2023-03-04T11:00:28;100106.50;;;3.08;82.61
76448;BME280;65284;51.040;13.722;2023-03-04T11:03:21;100112.25;;;3.13;82.75
76448;BME280;65284;51.040;13.722;2023-03-04T11:05:50;100102.94;;;3.09;83.10
76448;BME280;65284;51.040;13.722;2023-03-04T11:08:19;100103.16;;;3.06;83.31
76448;BME280;65284;51.040;13.722;2023-03-04T11:10:47;100091.47;;;3.10;83.31
76448;BME280;65284;51.040;13.722;2023-03-04T11:13:23;100093.03;;;3.13;83.67
76448;BME280;65284;51.040;13.722;2023-03-04T11:15:59;100085.53;;;3.08;83.59
76448;BME280;65284;51.040;13.722;2023-03-04T11:18:43;100094.84;;;3.12;83.11
76448;BME280;65284;51.040;13.722;2023-03-04T11:21:18;100081.34;;;3.06;83.36
76448;BME280;65284;51.040;13.722;2023-03-04T11:23:51;100092.50;;;3.21;83.37
76448;BME280;65284;51.040;13.722;2023-03-04T11:26:33;100083.94;;;3.30;82.72
76448;BME280;65284;51.040;13.722;2023-03-04T11:32:09;100082.22;;;3.41;82.14
76448;BME280;65284;51.040;13.722;2023-03-04T11:34:49;100080.66;;;3.39;82.22
76448;BME280;65284;51.040;13.722;2023-03-04T11:37:29;100063.56;;;3.33;82.16
76448;BME280;65284;51.040;13.722;2023-03-04T11:40:08;100073.69;;;3.27;82.38
76448;BME280;65284;51.040;13.722;2023-03-04T11:45:16;100076.59;;;3.35;82.42
76448;BME280;65284;51.040;13.722;2023-03-04T11:56:41;100061.06;;;3.32;82.21
76448;BME280;65284;51.040;13.722;2023-03-04T12:02:23;100067.19;;;3.44;82.02
76448;BME280;65284;51.040;13.722;2023-03-04T12:07:45;100042.41;;;3.59;80.90
76448;BME280;65284;51.040;13.722;2023-03-04T12:13:13;100040.41;;;3.74;80.34
76448;BME280;65284;51.040;13.722;2023-03-04T12:21:21;100029.41;;;3.69;80.61
76448;BME280;65284;51.040;13.722;2023-03-04T12:24:17;100033.28;;;3.76;80.08
76448;BME280;65284;51.040;13.722;2023-03-04T12:26:53;100031.72;;;3.73;80.23
76448;BME280;65284;51.040;13.722;2023-03-04T12:32:32;100016.81;;;3.85;79.73
76448;BME280;65284;51.040;13.722;2023-03-04T12:35:22;100034.00;;;3.89;79.51
76448;BME280;65284;51.040;13.722;2023-03-04T12:38:11;100005.34;;;3.97;79.20
76448;BME280;65284;51.040;13.722;2023-03-04T12:41:38;100013.00;;;4.00;78.77
76448;BME280;65284;51.040;13.722;2023-03-04T12:43:57;100021.94;;;3.98;78.75
76448;BME280;65284;51.040;13.722;2023-03-04T12:46:48;100010.13;;;4.03;79.07
76448;BME280;65284;51.040;13.722;2023-03-04T12:52:28;100000.91;;;3.98;79.10
76448;BME280;65284;51.040;13.722;2023-03-04T12:55:03;100005.22;;;3.99;78.78
76448;BME280;65284;51.040;13.722;2023-03-04T12:57:30;100000.09;;;3.97;78.84
76448;BME280;65284;51.040;13.722;2023-03-04T13:00:22;99999.84;;;4.12;78.29
76448;BME280;65284;51.040;13.722;2023-03-04T13:03:03;99998.53;;;4.06;78.53
76448;BME280;65284;51.040;13.722;2023-03-04T13:08:50;99986.09;;;4.08;78.35
76448;BME280;65284;51.040;13.722;2023-03-04T13:14:06;99993.88;;;4.21;77.08
76448;BME280;65284;51.040;13.722;2023-03-04T13:16:41;99994.22;;;4.16;77.14
76448;BME280;65284;51.040;13.722;2023-03-04T13:19:47;99986.00;;;4.21;77.82
76448;BME280;65284;51.040;13.722;2023-03-04T13:22:34;99978.94;;;4.10;77.19
76448;BME280;65284;51.040;13.722;2023-03-04T13:25:30;99986.00;;;4.21;77.20
76448;BME280;65284;51.040;13.722;2023-03-04T13:43:44;99964.31;;;4.51;74.19
76448;BME280;65284;51.040;13.722;2023-03-04T13:51:18;99974.47;;;4.55;73.88
76448;BME280;65284;51.040;13.722;2023-03-04T13:56:44;99972.41;;;4.70;73.84
76448;BME280;65284;51.040;13.722;2023-03-04T13:59:23;99950.50;;;4.70;73.78
76448;BME280;65284;51.040;13.722;2023-03-04T14:01:55;99961.38;;;4.76;73.28
76448;BME280;65284;51.040;13.722;2023-03-04T14:06:57;99956.13;;;4.76;73.15
76448;BME280;65284;51.040;13.722;2023-03-04T14:09:27;99966.03;;;4.73;73.73
76448;BME280;65284;51.040;13.722;2023-03-04T14:11:56;99947.25;;;4.77;73.97
76448;BME280;65284;51.040;13.722;2023-03-04T14:14:39;99953.59;;;4.75;74.20
76448;BME280;65284;51.040;13.722;2023-03-04T14:17:16;99951.19;;;4.83;73.72
76448;BME280;65284;51.040;13.722;2023-03-04T14:19:47;99982.75;;;4.83;73.94